createdAt,value
2022-12-03T00:02:15.430Z,318.13
2022-12-03T00:04:41.931Z,206.68
2022-12-03T00:07:08.379Z,110.75
2022-12-03T00:09:34.836Z,103.50
2022-12-03T00:12:01.411Z,176.75
2022-12-03T00:14:27.865Z,68.70
2022-12-03T00:16:54.380Z,70.55
2022-12-03T00:19:20.821Z,60.13
2022-12-03T00:21:47.221Z,63.97
2022-12-03T00:24:13.633Z,68.20
2022-12-03T00:26:40.057Z,71.85
2022-12-03T00:29:07.066Z,66.53
2022-12-03T00:31:33.517Z,63.40
2022-12-03T00:33:59.937Z,62.20
2022-12-03T00:36:26.345Z,63.42
2022-12-03T00:38:53.739Z,55.92
2022-12-03T00:41:20.154Z,66.53
2022-12-03T00:43:46.593Z,53.70
2022-12-03T00:46:15.753Z,60.58
2022-12-03T00:48:46.208Z,56.53
2022-12-03T00:51:13.015Z,57.95
2022-12-03T00:53:39.575Z,55.53
2022-12-03T00:56:06.430Z,57.83
2022-12-03T00:58:32.882Z,54.58
2022-12-03T01:00:59.296Z,53.50
2022-12-03T01:03:25.925Z,56.83
2022-12-03T01:05:52.350Z,58.53
2022-12-03T01:08:18.783Z,54.55
2022-12-03T01:10:45.201Z,53.20
2022-12-03T01:13:11.606Z,55.70
2022-12-03T01:15:38.066Z,52.55
2022-12-03T01:18:04.511Z,57.08
2022-12-03T01:20:30.989Z,54.30
2022-12-03T01:22:58.460Z,57.97
2022-12-03T01:25:25.084Z,55.13
2022-12-03T01:27:51.513Z,56.17
2022-12-03T01:30:17.935Z,62.67
2022-12-03T01:32:44.364Z,60.10
2022-12-03T01:35:10.762Z,55.60
2022-12-03T01:37:37.336Z,53.95
2022-12-03T01:40:05.123Z,58.15
2022-12-03T01:42:35.123Z,56.70
2022-12-03T01:45:03.518Z,55.45
2022-12-03T01:47:37.815Z,54.85
2022-12-03T01:50:32.958Z,58.20
2022-12-03T01:53:02.324Z,57.28
2022-12-03T01:55:29.114Z,64.57
2022-12-03T01:58:01.028Z,64.35
2022-12-03T02:00:28.775Z,60.53
2022-12-03T02:02:59.370Z,58.95
2022-12-03T02:05:28.707Z,58.65
2022-12-03T02:07:55.872Z,45.85
2022-12-03T02:10:30.665Z,59.70
2022-12-03T02:13:00.888Z,63.03
2022-12-03T02:15:27.432Z,63.90
2022-12-03T02:17:54.812Z,56.88
2022-12-03T02:20:21.643Z,67.53
2022-12-03T02:23:03.299Z,61.90
2022-12-03T02:25:32.094Z,69.40
2022-12-03T02:28:00.091Z,61.28
2022-12-03T02:30:28.508Z,67.47
2022-12-03T02:32:56.809Z,65.07
2022-12-03T02:35:27.115Z,70.80
2022-12-03T02:38:00.432Z,65.03
2022-12-03T02:40:30.717Z,64.20
2022-12-03T02:43:01.158Z,65.65
2022-12-03T02:45:32.263Z,66.27
2022-12-03T02:48:02.573Z,65.90
2022-12-03T02:50:33.304Z,71.07
2022-12-03T02:53:05.432Z,68.55
2022-12-03T02:55:37.126Z,70.45
2022-12-03T02:58:05.227Z,71.15
2022-12-03T03:00:31.893Z,66.07
2022-12-03T03:02:58.578Z,70.45
2022-12-03T03:05:25.417Z,66.78
2022-12-03T03:07:51.966Z,71.75
2022-12-03T03:10:21.822Z,62.40
2022-12-03T03:12:48.524Z,74.15
2022-12-03T03:15:15.380Z,63.58
2022-12-03T03:17:42.899Z,61.05
2022-12-03T03:20:10.611Z,63.63
2022-12-03T03:22:40.507Z,64.80
2022-12-03T03:25:10.758Z,68.53
2022-12-03T03:27:38.243Z,72.15
2022-12-03T03:30:05.629Z,62.85
2022-12-03T03:32:32.936Z,61.72
2022-12-03T03:35:00.796Z,63.35
2022-12-03T03:37:28.257Z,64.35
2022-12-03T03:39:55.423Z,66.65
2022-12-03T03:42:22.734Z,59.25
2022-12-03T03:44:49.687Z,57.38
2022-12-03T03:47:17.061Z,56.17
2022-12-03T03:49:44.064Z,52.65
2022-12-03T03:52:11.681Z,55.40
2022-12-03T03:54:39.401Z,58.63
2022-12-03T03:57:06.105Z,57.85
2022-12-03T03:59:32.533Z,59.95
2022-12-03T04:01:58.963Z,60.45
2022-12-03T04:04:35.069Z,62.80
2022-12-03T04:07:01.545Z,58.00
2022-12-03T04:09:27.973Z,60.90
2022-12-03T04:12:12.721Z,62.33
2022-12-03T04:14:39.107Z,59.42
2022-12-03T04:17:05.515Z,54.20
2022-12-03T04:19:31.911Z,53.88
2022-12-03T04:22:16.736Z,59.28
2022-12-03T04:24:43.468Z,52.15
2022-12-03T04:27:28.719Z,52.60
2022-12-03T04:29:55.085Z,56.20
2022-12-03T04:32:40.276Z,54.25
2022-12-03T04:35:25.678Z,51.25
2022-12-03T04:37:52.125Z,60.63
2022-12-03T04:40:37.175Z,53.58
2022-12-03T04:43:03.593Z,53.25
2022-12-03T04:45:30.167Z,50.30
2022-12-03T04:47:56.642Z,52.90
2022-12-03T04:50:23.016Z,51.33
2022-12-03T04:52:49.401Z,53.92
2022-12-03T04:55:15.808Z,48.65
2022-12-03T04:57:42.331Z,53.10
2022-12-03T05:00:09.359Z,43.40
2022-12-03T05:02:35.840Z,45.38
2022-12-03T05:05:02.340Z,51.25
2022-12-03T05:07:28.802Z,47.58
2022-12-03T05:09:55.244Z,45.85
2022-12-03T05:12:21.656Z,51.72
2022-12-03T05:14:48.080Z,54.13
2022-12-03T05:17:14.510Z,55.90
2022-12-03T05:19:59.703Z,57.72
2022-12-03T05:22:26.115Z,57.47
2022-12-03T05:24:52.983Z,68.97
2022-12-03T05:27:23.865Z,77.38
2022-12-03T05:29:50.860Z,83.88
2022-12-03T05:32:17.301Z,86.45
2022-12-03T05:34:43.683Z,99.07
2022-12-03T05:37:10.089Z,89.95
2022-12-03T05:39:36.619Z,146.88
2022-12-03T05:42:21.883Z,158.20
2022-12-03T05:44:48.377Z,192.93
2022-12-03T05:47:15.043Z,143.23
2022-12-03T05:49:41.474Z,127.70
2022-12-03T05:52:07.877Z,112.22
2022-12-03T05:54:34.333Z,130.30
2022-12-03T05:57:00.757Z,100.47
2022-12-03T05:59:27.392Z,76.20
2022-12-03T06:01:53.831Z,83.30
2022-12-03T06:04:20.265Z,84.55
2022-12-03T06:06:46.695Z,72.38
2022-12-03T06:09:13.168Z,69.55
2022-12-03T06:11:40.574Z,69.30
2022-12-03T06:14:07.256Z,57.75
2022-12-03T06:16:33.737Z,59.15
2022-12-03T06:19:00.315Z,59.47
2022-12-03T06:21:27.236Z,55.33
2022-12-03T06:23:53.668Z,56.80
2022-12-03T06:26:20.088Z,47.85
2022-12-03T06:28:47.671Z,56.58
2022-12-03T06:31:14.475Z,52.17
2022-12-03T06:33:40.940Z,50.47
2022-12-03T06:36:07.623Z,47.38
2022-12-03T06:38:34.058Z,40.47
2022-12-03T06:41:00.497Z,51.40
2022-12-03T06:43:27.007Z,56.00
2022-12-03T06:45:53.396Z,49.95
2022-12-03T06:48:19.777Z,50.17
2022-12-03T06:50:46.139Z,49.38
2022-12-03T06:53:12.536Z,48.05
2022-12-03T06:55:39.260Z,48.58
2022-12-03T06:58:05.687Z,49.80
2022-12-03T07:00:32.109Z,53.78
2022-12-03T07:02:58.604Z,50.08
2022-12-03T07:05:25.037Z,53.78
2022-12-03T07:07:52.296Z,53.30
2022-12-03T07:10:19.293Z,48.33
2022-12-03T07:12:45.853Z,58.63
2022-12-03T07:15:12.325Z,64.75
2022-12-03T07:17:39.023Z,63.28
2022-12-03T07:20:06.357Z,66.38
2022-12-03T07:22:32.938Z,58.42
2022-12-03T07:24:59.359Z,70.60
2022-12-03T07:27:25.806Z,61.83
2022-12-03T07:29:52.225Z,63.05
2022-12-03T07:32:18.680Z,74.85
2022-12-03T07:34:45.120Z,62.83
2022-12-03T07:37:11.560Z,85.07
2022-12-03T07:39:40.427Z,65.18
2022-12-03T07:42:09.159Z,56.50
2022-12-03T07:44:35.714Z,53.63
2022-12-03T07:47:02.176Z,59.17
2022-12-03T07:49:28.608Z,50.85
2022-12-03T07:51:56.826Z,54.55
2022-12-03T07:54:24.393Z,54.63
2022-12-03T07:56:50.846Z,44.55
2022-12-03T07:59:17.650Z,55.78
2022-12-03T08:01:44.429Z,48.08
2022-12-03T08:04:12.817Z,52.47
2022-12-03T08:06:39.238Z,63.97
2022-12-03T08:09:05.659Z,54.58
2022-12-03T08:11:33.291Z,52.85
2022-12-03T08:13:59.841Z,71.22
2022-12-03T08:16:26.342Z,66.07
2022-12-03T08:18:54.871Z,64.35
2022-12-03T08:21:21.816Z,51.22
2022-12-03T08:23:48.314Z,46.40
2022-12-03T08:26:23.398Z,48.92
2022-12-03T08:28:51.210Z,53.00
2022-12-03T08:31:32.276Z,55.67
2022-12-03T08:34:15.402Z,67.63
2022-12-03T08:36:41.964Z,49.20
2022-12-03T08:39:29.959Z,112.05
2022-12-03T08:42:24.363Z,84.57
2022-12-03T08:44:52.511Z,67.25
2022-12-03T08:47:22.031Z,74.72
2022-12-03T08:49:58.119Z,89.32
2022-12-03T08:52:31.389Z,93.72
2022-12-03T08:54:57.938Z,125.85
2022-12-03T08:57:28.421Z,180.50
2022-12-03T08:59:59.711Z,69.20
2022-12-03T09:02:32.913Z,88.18
2022-12-03T09:05:23.385Z,134.15
2022-12-03T09:07:49.871Z,114.55
2022-12-03T09:10:16.424Z,125.90
2022-12-03T09:12:42.809Z,100.20
2022-12-03T09:15:09.608Z,116.97
2022-12-03T09:17:36.868Z,80.60
2022-12-03T09:20:04.762Z,104.15
2022-12-03T09:22:31.405Z,139.95
2022-12-03T09:24:57.780Z,71.00
2022-12-03T09:27:24.223Z,97.47
2022-12-03T09:29:51.092Z,69.57
2022-12-03T09:32:18.748Z,90.45
2022-12-03T09:34:45.576Z,111.57
2022-12-03T09:37:11.980Z,107.03
2022-12-03T09:39:38.472Z,75.70
2022-12-03T09:42:05.384Z,86.47
2022-12-03T09:44:35.648Z,107.55
2022-12-03T09:47:03.007Z,138.45
2022-12-03T09:49:32.745Z,97.30
2022-12-03T09:52:02.943Z,102.72
2022-12-03T09:54:30.896Z,87.30
2022-12-03T09:57:00.791Z,115.68
2022-12-03T09:59:31.712Z,125.75
2022-12-03T10:01:58.543Z,106.35
2022-12-03T10:04:25.121Z,168.77
2022-12-03T10:06:51.616Z,102.18
2022-12-03T10:09:24.334Z,165.88
2022-12-03T10:11:50.951Z,176.57
2022-12-03T10:14:19.529Z,159.52
2022-12-03T10:16:46.500Z,212.95
2022-12-03T10:19:22.575Z,158.07
2022-12-03T10:21:49.139Z,132.82
2022-12-03T10:24:24.144Z,128.02
2022-12-03T10:26:52.537Z,193.52
2022-12-03T10:29:18.956Z,140.38
2022-12-03T10:31:46.837Z,138.35
2022-12-03T10:34:13.339Z,150.38
2022-12-03T10:36:40.375Z,197.30
2022-12-03T10:39:16.913Z,217.73
2022-12-03T10:41:44.647Z,151.75
2022-12-03T10:44:15.805Z,196.98
2022-12-03T10:46:42.728Z,120.18
2022-12-03T10:49:14.806Z,115.63
2022-12-03T10:51:41.737Z,112.35
2022-12-03T10:54:16.692Z,233.13
2022-12-03T10:56:43.683Z,116.07
2022-12-03T10:59:17.026Z,185.30
2022-12-03T11:01:43.719Z,134.35
2022-12-03T11:04:20.021Z,132.07
2022-12-03T11:06:46.748Z,82.13
2022-12-03T11:09:22.472Z,97.82
2022-12-03T11:11:49.242Z,162.38
2022-12-03T11:14:54.481Z,154.07
2022-12-03T11:17:50.592Z,292.27
2022-12-03T11:20:22.871Z,193.75
2022-12-03T11:22:53.320Z,169.70
2022-12-03T11:25:28.871Z,217.32
2022-12-03T11:28:13.815Z,95.82
2022-12-03T11:30:49.825Z,124.38
2022-12-03T11:33:26.661Z,133.98
2022-12-03T11:36:05.286Z,78.18
2022-12-03T11:38:37.558Z,57.17
2022-12-03T11:41:19.221Z,56.97
2022-12-03T11:43:51.721Z,156.93
2022-12-03T11:46:24.525Z,99.10
2022-12-03T11:48:54.049Z,122.35
2022-12-03T11:51:22.884Z,215.27
2022-12-03T11:53:51.457Z,298.65
2022-12-03T11:56:25.762Z,319.30
2022-12-03T11:59:04.242Z,125.95
2022-12-03T12:01:38.787Z,242.23
2022-12-03T12:04:06.374Z,262.23
2022-12-03T12:06:46.420Z,177.65
2022-12-03T12:09:53.186Z,161.60
2022-12-03T12:12:39.067Z,213.20
2022-12-03T12:15:33.206Z,76.03
2022-12-03T12:18:36.935Z,105.53
2022-12-03T12:21:41.692Z,77.05
2022-12-03T12:24:40.538Z,60.22
2022-12-03T12:27:09.885Z,71.78
2022-12-03T12:29:38.211Z,71.30
2022-12-03T12:32:10.705Z,105.25
2022-12-03T12:34:41.331Z,55.92
2022-12-03T12:37:30.432Z,94.07
2022-12-03T12:39:57.397Z,93.03
2022-12-03T12:42:33.186Z,63.28
2022-12-03T12:45:16.553Z,63.70
2022-12-03T12:47:49.296Z,78.78
2022-12-03T12:50:17.968Z,125.55
2022-12-03T12:52:52.809Z,152.48
2022-12-03T12:55:20.357Z,164.27
2022-12-03T12:57:47.148Z,217.15
2022-12-03T13:00:15.728Z,180.90
2022-12-03T13:02:49.657Z,192.43
2022-12-03T13:05:16.933Z,185.23
2022-12-03T13:07:44.037Z,187.95
2022-12-03T13:10:32.958Z,149.85
2022-12-03T13:13:12.576Z,127.38
2022-12-03T13:15:45.274Z,118.38
2022-12-03T13:18:34.530Z,133.35
2022-12-03T13:21:13.602Z,117.85
2022-12-03T13:23:40.201Z,133.05
2022-12-03T13:26:34.078Z,159.77
2022-12-03T13:29:10.097Z,179.13
2022-12-03T13:31:43.395Z,151.80
2022-12-03T13:34:21.880Z,197.55
2022-12-03T13:36:55.475Z,149.30
2022-12-03T13:39:36.640Z,73.57
2022-12-03T13:42:42.092Z,126.60
2022-12-03T13:45:17.483Z,115.05
2022-12-03T13:47:47.289Z,76.38
2022-12-03T13:50:32.933Z,91.43
2022-12-03T13:53:06.729Z,80.88
2022-12-03T13:55:33.187Z,79.50
2022-12-03T13:57:59.640Z,77.13
2022-12-03T14:00:26.148Z,141.00
2022-12-03T14:02:52.617Z,143.18
2022-12-03T14:05:21.063Z,162.30
2022-12-03T14:07:47.535Z,162.13
2022-12-03T14:10:14.111Z,257.27
2022-12-03T14:12:40.514Z,176.43
2022-12-03T14:15:08.500Z,235.57
2022-12-03T14:17:35.004Z,189.50
2022-12-03T14:20:01.927Z,197.00
2022-12-03T14:22:28.646Z,226.10
2022-12-03T14:24:55.153Z,142.20
2022-12-03T14:27:24.800Z,144.20
2022-12-03T14:29:52.229Z,75.25
2022-12-03T14:32:19.168Z,143.27
2022-12-03T14:34:45.641Z,155.75
2022-12-03T14:37:12.135Z,68.15
2022-12-03T14:39:38.583Z,78.97
2022-12-03T14:42:14.017Z,71.85
2022-12-03T14:44:44.923Z,160.88
2022-12-03T14:47:12.387Z,202.75
2022-12-03T14:49:39.153Z,142.82
2022-12-03T14:52:08.620Z,181.63
2022-12-03T14:54:39.168Z,116.53
2022-12-03T14:57:05.617Z,127.55
2022-12-03T14:59:31.995Z,143.75
2022-12-03T15:01:58.546Z,181.02
2022-12-03T15:04:25.224Z,185.27
2022-12-03T15:06:51.657Z,223.57
2022-12-03T15:09:18.099Z,167.05
2022-12-03T15:11:46.420Z,119.15
2022-12-03T15:14:13.304Z,141.75
2022-12-03T15:16:39.784Z,139.90
2022-12-03T15:19:06.258Z,130.30
2022-12-03T15:21:34.792Z,213.57
2022-12-03T15:24:02.074Z,170.00
2022-12-03T15:26:28.947Z,186.38
2022-12-03T15:28:55.398Z,211.20
2022-12-03T15:31:21.858Z,281.30
2022-12-03T15:33:48.537Z,193.88
2022-12-03T15:36:15.055Z,199.90
2022-12-03T15:38:41.484Z,247.23
2022-12-03T15:41:28.615Z,247.57
2022-12-03T15:43:59.266Z,159.30
2022-12-03T15:46:27.835Z,188.40
2022-12-03T15:48:55.219Z,263.98
2022-12-03T15:51:21.663Z,218.48
2022-12-03T15:53:48.084Z,207.43
2022-12-03T15:56:14.680Z,321.27
2022-12-03T15:58:41.664Z,177.05
2022-12-03T16:01:08.849Z,286.02
2022-12-03T16:03:35.910Z,190.50
2022-12-03T16:06:02.527Z,171.45
2022-12-03T16:08:29.025Z,259.85
2022-12-03T16:10:55.474Z,309.83
2022-12-03T16:13:21.944Z,268.90
2022-12-03T16:15:48.498Z,279.98
2022-12-03T16:18:15.033Z,344.27
2022-12-03T16:20:41.482Z,415.35
2022-12-03T16:23:08.181Z,353.30
2022-12-03T16:25:34.668Z,235.75
2022-12-03T16:28:01.073Z,281.83
2022-12-03T16:30:27.510Z,254.52
2022-12-03T16:32:53.982Z,352.20
2022-12-03T16:35:20.435Z,242.88
2022-12-03T16:37:46.938Z,322.45
2022-12-03T16:40:13.455Z,352.70
2022-12-03T16:42:39.919Z,304.38
2022-12-03T16:45:09.881Z,344.02
2022-12-03T16:47:36.614Z,275.42
2022-12-03T16:50:07.963Z,338.67
2022-12-03T16:55:01.517Z,159.75
2022-12-03T16:57:33.436Z,256.90
2022-12-03T17:00:01.029Z,303.92
2022-12-03T17:02:27.849Z,138.43
2022-12-03T17:04:54.573Z,186.52
2022-12-03T17:07:20.994Z,191.70
2022-12-03T17:09:47.408Z,182.90
2022-12-03T17:12:13.891Z,213.68
2022-12-03T17:14:40.350Z,196.73
2022-12-03T17:17:06.752Z,161.27
2022-12-03T17:19:33.190Z,147.95
2022-12-03T17:21:59.813Z,156.90
2022-12-03T17:24:26.260Z,154.82
2022-12-03T17:26:52.764Z,237.23
2022-12-03T17:29:19.201Z,145.77
2022-12-03T17:31:45.739Z,176.48
2022-12-03T17:34:12.175Z,168.38
2022-12-03T17:36:38.591Z,170.23
2022-12-03T17:39:05.013Z,163.05
2022-12-03T17:41:31.420Z,149.63
2022-12-03T17:43:57.820Z,108.93
2022-12-03T17:46:24.250Z,159.98
2022-12-03T17:48:50.694Z,305.92
2022-12-03T17:51:19.154Z,380.70
2022-12-03T17:53:45.617Z,300.15
2022-12-03T17:56:12.131Z,160.95
2022-12-03T17:58:39.214Z,325.35
2022-12-03T18:01:07.745Z,235.32
2022-12-03T18:03:34.215Z,321.83
2022-12-03T18:06:00.636Z,298.83
2022-12-03T18:08:27.087Z,369.70
2022-12-03T18:10:53.592Z,323.10
2022-12-03T18:13:20.249Z,375.55
2022-12-03T18:15:46.709Z,290.85
2022-12-03T18:18:13.324Z,313.05
2022-12-03T18:20:39.776Z,519.72
2022-12-03T18:23:06.266Z,119.93
2022-12-03T18:25:32.764Z,439.48
2022-12-03T18:27:59.182Z,138.45
2022-12-03T18:30:25.664Z,146.75
2022-12-03T18:32:52.173Z,166.18
2022-12-03T18:35:18.715Z,201.95
2022-12-03T18:37:45.467Z,273.80
2022-12-03T18:40:23.685Z,292.52
2022-12-03T18:42:50.359Z,415.45
2022-12-03T18:45:16.974Z,295.25
2022-12-03T18:47:43.934Z,249.88
2022-12-03T18:50:11.632Z,191.38
2022-12-03T18:52:38.406Z,228.05
2022-12-03T18:55:05.404Z,215.13
2022-12-03T18:57:31.796Z,183.02
2022-12-03T18:59:58.624Z,180.43
2022-12-03T19:02:54.302Z,125.95
2022-12-03T19:05:11.706Z,233.32
2022-12-03T19:07:38.267Z,229.02
2022-12-03T19:10:05.267Z,183.68
2022-12-03T19:12:32.534Z,254.00
2022-12-03T19:14:58.946Z,269.90
2022-12-03T19:17:26.987Z,329.00
2022-12-03T19:19:53.618Z,299.42
2022-12-03T19:22:20.348Z,285.10
2022-12-03T19:24:46.789Z,173.40
2022-12-03T19:27:13.220Z,146.98
2022-12-03T19:29:39.845Z,150.15
2022-12-03T19:32:06.374Z,151.68
2022-12-03T19:34:33.178Z,169.00
2022-12-03T19:36:59.574Z,128.10
2022-12-03T19:39:26.236Z,211.43
2022-12-03T19:41:52.619Z,211.80
2022-12-03T19:44:19.140Z,198.55
2022-12-03T19:46:45.679Z,157.65
2022-12-03T19:49:12.096Z,140.35
2022-12-03T19:51:38.574Z,206.10
2022-12-03T19:54:06.551Z,216.55
2022-12-03T19:56:33.376Z,203.13
2022-12-03T19:58:59.832Z,198.90
2022-12-03T20:01:28.976Z,357.48
2022-12-03T20:03:57.527Z,187.93
2022-12-03T20:06:26.622Z,357.45
2022-12-03T20:08:58.874Z,227.50
2022-12-03T20:11:27.863Z,194.40
2022-12-03T20:14:04.102Z,307.35
2022-12-03T20:16:30.572Z,323.75
2022-12-03T20:18:59.960Z,348.63
2022-12-03T20:21:28.477Z,294.48
2022-12-03T20:23:54.901Z,332.63
2022-12-03T20:26:22.267Z,272.67
2022-12-03T20:28:48.727Z,446.85
2022-12-03T20:31:18.231Z,340.08
2022-12-03T20:33:48.043Z,378.08
2022-12-03T20:36:16.661Z,263.48
2022-12-03T20:38:43.803Z,302.52
2022-12-03T20:41:13.117Z,239.55
2022-12-03T20:43:39.629Z,234.48
2022-12-03T20:46:11.060Z,439.63
2022-12-03T20:51:09.240Z,330.10
2022-12-03T20:53:36.027Z,287.77
2022-12-03T20:56:04.024Z,331.52
2022-12-03T20:58:31.863Z,330.02
2022-12-03T21:01:15.666Z,336.67
2022-12-03T21:03:43.031Z,438.83
2022-12-03T21:06:10.243Z,403.05
2022-12-03T21:08:41.419Z,274.08
2022-12-03T21:11:14.243Z,227.50
2022-12-03T21:13:44.239Z,206.05
2022-12-03T21:16:16.766Z,254.70
2022-12-03T21:18:43.648Z,230.95
2022-12-03T21:21:14.630Z,246.65
2022-12-03T21:23:41.691Z,190.65
2022-12-03T21:26:14.193Z,202.82
2022-12-03T21:28:43.107Z,145.82
2022-12-03T21:31:13.519Z,134.18
2022-12-03T21:33:40.523Z,161.70
2022-12-03T21:36:07.446Z,154.63
2022-12-03T21:38:34.982Z,162.20
2022-12-03T21:41:02.266Z,163.95
2022-12-03T21:43:29.344Z,173.25
2022-12-03T21:45:56.481Z,182.63
2022-12-03T21:48:22.973Z,183.27
2022-12-03T21:51:03.588Z,140.98
2022-12-03T21:53:32.095Z,183.02
2022-12-03T21:55:59.362Z,166.90
2022-12-03T21:58:26.082Z,176.30
2022-12-03T22:00:52.544Z,183.27
2022-12-03T22:03:18.927Z,224.98
2022-12-03T22:05:45.395Z,213.68
2022-12-03T22:08:13.706Z,220.82
2022-12-03T22:10:40.396Z,254.55
2022-12-03T22:13:06.834Z,348.90
2022-12-03T22:15:33.418Z,282.02
2022-12-03T22:17:59.897Z,264.85
2022-12-03T22:20:26.747Z,389.55
2022-12-03T22:22:53.164Z,218.52
2022-12-03T22:25:19.570Z,199.43
2022-12-03T22:27:46.002Z,204.70
2022-12-03T22:30:12.664Z,221.25
2022-12-03T22:32:39.169Z,226.63
2022-12-03T22:35:06.128Z,298.63
2022-12-03T22:37:32.858Z,389.05
2022-12-03T22:39:59.296Z,379.52
2022-12-03T22:42:25.693Z,530.88
2022-12-03T22:44:52.111Z,396.05
2022-12-03T22:47:18.571Z,402.65
2022-12-03T22:49:44.947Z,349.58
2022-12-03T22:52:11.316Z,322.40
2022-12-03T22:54:37.710Z,338.90
2022-12-03T22:57:04.184Z,383.52
2022-12-03T22:59:30.690Z,201.02
2022-12-03T23:01:57.122Z,452.48
2022-12-03T23:04:23.538Z,219.00
2022-12-03T23:06:50.000Z,304.30
2022-12-03T23:09:16.411Z,315.35
2022-12-03T23:11:45.247Z,454.80
2022-12-03T23:14:12.285Z,482.40
2022-12-03T23:16:40.052Z,317.88
2022-12-03T23:19:06.544Z,164.88
2022-12-03T23:21:34.708Z,214.45
2022-12-03T23:24:03.354Z,233.48
2022-12-03T23:26:30.223Z,355.63
2022-12-03T23:28:56.738Z,243.80
2022-12-03T23:31:26.319Z,365.13
2022-12-03T23:33:53.941Z,217.23
2022-12-03T23:36:21.823Z,390.17
2022-12-03T23:38:48.367Z,415.08
2022-12-03T23:41:17.644Z,386.90
2022-12-03T23:43:44.099Z,425.80
2022-12-03T23:46:12.989Z,301.60
2022-12-03T23:48:39.668Z,269.95
2022-12-03T23:51:08.106Z,203.63
2022-12-03T23:53:35.509Z,137.90
2022-12-03T23:56:06.309Z,186.93
2022-12-03T23:58:33.812Z,212.98
